createdAt,value
2018-09-27T00:00:44.017Z,98474.95
2018-09-27T00:03:11.198Z,98479.31
2018-09-27T00:05:38.327Z,98475.91
2018-09-27T00:08:05.524Z,98478.91
2018-09-27T00:10:32.684Z,98478.04
2018-09-27T00:12:59.816Z,98475.33
2018-09-27T00:15:26.945Z,98478.34
2018-09-27T00:17:54.077Z,98475.75
2018-09-27T00:20:21.273Z,98477.58
2018-09-27T00:22:48.471Z,98457.22
2018-09-27T00:25:15.581Z,98467.95
2018-09-27T00:27:42.702Z,98458.53
2018-09-27T00:30:09.869Z,98462.57
2018-09-27T00:32:36.995Z,98467.84
2018-09-27T00:35:04.320Z,98458.56
2018-09-27T00:37:31.468Z,98460.36
2018-09-27T00:39:58.616Z,98455.39
2018-09-27T00:42:25.753Z,98448.05
2018-09-27T00:44:52.896Z,98445.59
2018-09-27T00:47:20.043Z,98452.67
2018-09-27T00:49:47.187Z,98451.53
2018-09-27T00:52:14.313Z,98447.80
2018-09-27T00:54:41.445Z,98446.92
2018-09-27T00:57:08.538Z,98451.08
2018-09-27T00:59:35.753Z,98440.59
2018-09-27T01:02:02.970Z,98432.52
2018-09-27T01:04:30.159Z,98428.28
2018-09-27T01:06:57.313Z,98441.69
2018-09-27T01:09:24.477Z,98441.09
2018-09-27T01:11:51.635Z,98436.84
2018-09-27T01:14:18.844Z,98440.98
2018-09-27T01:16:45.948Z,98441.09
2018-09-27T01:19:13.075Z,98443.53
2018-09-27T01:21:40.224Z,98438.33
2018-09-27T01:24:07.439Z,98432.45
2018-09-27T01:26:34.572Z,98429.50
2018-09-27T01:29:01.775Z,98424.19
2018-09-27T01:31:28.912Z,98439.36
2018-09-27T01:33:56.104Z,98445.58
2018-09-27T01:36:23.279Z,98445.20
2018-09-27T01:38:50.466Z,98453.71
2018-09-27T01:41:17.602Z,98448.23
2018-09-27T01:43:44.835Z,98440.59
2018-09-27T01:46:11.992Z,98441.78
2018-09-27T01:48:39.135Z,98435.95
2018-09-27T01:51:06.358Z,98426.31
2018-09-27T01:53:33.509Z,98425.20
2018-09-27T01:56:00.662Z,98426.59
2018-09-27T01:58:28.043Z,98420.55
2018-09-27T02:00:55.257Z,98414.25
2018-09-27T02:03:22.447Z,98418.73
2018-09-27T02:05:49.659Z,98423.83
2018-09-27T02:08:16.914Z,98429.34
2018-09-27T02:10:44.141Z,98421.41
2018-09-27T02:13:11.315Z,98415.63
2018-09-27T02:15:38.495Z,98420.27
2018-09-27T02:18:05.636Z,98423.50
2018-09-27T02:20:32.795Z,98413.13
2018-09-27T02:22:59.929Z,98415.59
2018-09-27T02:25:27.122Z,98407.66
2018-09-27T02:27:54.316Z,98409.01
2018-09-27T02:30:21.562Z,98404.36
2018-09-27T02:32:48.749Z,98401.23
2018-09-27T02:35:15.949Z,98398.10
2018-09-27T02:37:43.069Z,98396.23
2018-09-27T02:40:10.651Z,98389.77
2018-09-27T02:42:37.853Z,98387.08
2018-09-27T02:45:05.128Z,98393.97
2018-09-27T02:47:32.286Z,98395.09
2018-09-27T02:49:59.511Z,98387.03
2018-09-27T02:52:26.731Z,98382.40
2018-09-27T02:54:53.910Z,98378.63
2018-09-27T02:57:21.057Z,98363.23
2018-09-27T02:59:48.253Z,98369.89
2018-09-27T03:02:15.436Z,98371.24
2018-09-27T03:04:42.619Z,98363.67
2018-09-27T03:07:09.864Z,98368.70
2018-09-27T03:09:37.092Z,98369.22
2018-09-27T03:12:04.284Z,98368.85
2018-09-27T03:14:31.517Z,98360.56
2018-09-27T03:16:58.692Z,98365.64
2018-09-27T03:19:25.889Z,98358.20
2018-09-27T03:21:53.059Z,98350.08
2018-09-27T03:24:20.218Z,98352.45
2018-09-27T03:26:47.423Z,98345.41
2018-09-27T03:29:14.633Z,98345.03
2018-09-27T03:31:41.806Z,98356.10
2018-09-27T03:34:08.990Z,98356.19
2018-09-27T03:36:36.197Z,98356.31
2018-09-27T03:39:05.084Z,98350.19
2018-09-27T03:41:32.281Z,98350.70
2018-09-27T03:43:59.480Z,98360.39
2018-09-27T03:46:26.697Z,98352.48
2018-09-27T03:48:54.535Z,98355.14
2018-09-27T03:51:21.776Z,98353.97
2018-09-27T03:53:48.992Z,98345.77
2018-09-27T03:56:16.297Z,98347.30
2018-09-27T03:58:43.531Z,98348.58
2018-09-27T04:01:10.746Z,98349.23
2018-09-27T04:03:37.893Z,98355.40
2018-09-27T04:06:05.161Z,98348.32
2018-09-27T04:08:32.376Z,98350.68
2018-09-27T04:10:59.556Z,98347.69
2018-09-27T04:13:26.718Z,98347.98
2018-09-27T04:15:53.925Z,98355.00
2018-09-27T04:18:21.148Z,98358.55
2018-09-27T04:20:51.380Z,98361.45
2018-09-27T04:23:19.928Z,98352.30
2018-09-27T04:25:47.170Z,98357.06
2018-09-27T04:28:14.358Z,98355.34
2018-09-27T04:30:41.566Z,98356.19
2018-09-27T04:33:08.719Z,98363.27
2018-09-27T04:35:35.868Z,98359.45
2018-09-27T04:38:03.265Z,98364.83
2018-09-27T04:40:30.408Z,98374.34
2018-09-27T04:42:57.549Z,98375.52
2018-09-27T04:45:24.756Z,98361.59
2018-09-27T04:47:51.885Z,98365.46
2018-09-27T04:50:19.053Z,98365.05
2018-09-27T04:52:46.211Z,98367.19
2018-09-27T04:55:13.410Z,98367.59
2018-09-27T04:57:40.551Z,98368.66
2018-09-27T05:00:07.726Z,98367.14
2018-09-27T05:02:34.878Z,98364.98
2018-09-27T05:05:02.783Z,98374.28
2018-09-27T05:07:30.023Z,98375.78
2018-09-27T05:09:57.183Z,98368.17
2018-09-27T05:12:24.339Z,98369.13
2018-09-27T05:14:51.473Z,98366.11
2018-09-27T05:17:18.637Z,98365.75
2018-09-27T05:19:45.797Z,98367.98
2018-09-27T05:22:12.984Z,98377.50
2018-09-27T05:24:40.120Z,98374.81
2018-09-27T05:27:07.466Z,98375.95
2018-09-27T05:29:34.566Z,98362.84
2018-09-27T05:32:01.771Z,98361.95
2018-09-27T05:34:29.039Z,98356.83
2018-09-27T05:36:56.249Z,98351.66
2018-09-27T05:39:23.499Z,98356.48
2018-09-27T05:41:50.648Z,98354.56
2018-09-27T05:44:17.775Z,98355.01
2018-09-27T05:46:45.012Z,98361.15
2018-09-27T05:49:12.191Z,98363.59
2018-09-27T05:51:39.426Z,98359.09
2018-09-27T05:54:06.525Z,98365.29
2018-09-27T05:56:34.478Z,98362.02
2018-09-27T05:59:01.617Z,98360.47
2018-09-27T06:01:28.767Z,98361.64
2018-09-27T06:03:55.936Z,98367.67
2018-09-27T06:06:23.095Z,98361.12
2018-09-27T06:08:51.275Z,98360.56
2018-09-27T06:11:18.900Z,98353.31
2018-09-27T06:13:46.025Z,98351.69
2018-09-27T06:16:13.200Z,98351.33
2018-09-27T06:18:40.440Z,98352.73
2018-09-27T06:21:07.637Z,98350.38
2018-09-27T06:23:34.804Z,98358.44
2018-09-27T06:26:01.993Z,98364.13
2018-09-27T06:28:29.171Z,98367.79
2018-09-27T06:30:56.288Z,98368.58
2018-09-27T06:33:23.541Z,98373.38
2018-09-27T06:35:50.676Z,98369.00
2018-09-27T06:38:18.099Z,98365.86
2018-09-27T06:40:45.311Z,98365.57
2018-09-27T06:43:12.451Z,98369.57
2018-09-27T06:45:39.613Z,98366.97
2018-09-27T06:48:06.810Z,98369.33
2018-09-27T06:50:33.980Z,98365.22
2018-09-27T06:53:01.138Z,98358.27
2018-09-27T06:55:28.476Z,98354.11
2018-09-27T06:57:55.487Z,98349.07
2018-09-27T07:00:22.633Z,98351.91
2018-09-27T07:02:49.865Z,98355.52
2018-09-27T07:05:17.048Z,98358.25
2018-09-27T07:07:44.216Z,98354.72
2018-09-27T07:10:11.416Z,98359.56
2018-09-27T07:12:38.609Z,98360.10
2018-09-27T07:15:05.803Z,98352.55
2018-09-27T07:17:32.925Z,98348.37
2018-09-27T07:20:00.100Z,98349.77
2018-09-27T07:22:27.287Z,98345.83
2018-09-27T07:24:54.435Z,98342.64
2018-09-27T07:27:21.615Z,98344.19
2018-09-27T07:29:48.785Z,98345.66
2018-09-27T07:32:15.994Z,98345.02
2018-09-27T07:34:43.195Z,98342.57
2018-09-27T07:37:10.367Z,98344.45
2018-09-27T07:39:37.528Z,98341.42
2018-09-27T07:42:04.709Z,98346.87
2018-09-27T07:44:31.908Z,98344.63
2018-09-27T07:46:59.092Z,98344.07
2018-09-27T07:49:26.311Z,98342.97
2018-09-27T07:51:53.503Z,98342.30
2018-09-27T07:54:20.704Z,98343.77
2018-09-27T07:56:47.841Z,98340.37
2018-09-27T07:59:14.941Z,98338.16
2018-09-27T08:01:42.108Z,98339.22
2018-09-27T08:04:09.429Z,98341.70
2018-09-27T08:06:36.568Z,98338.66
2018-09-27T08:09:05.996Z,98338.66
2018-09-27T08:11:33.197Z,98339.98
2018-09-27T08:14:00.316Z,98338.05
2018-09-27T08:16:27.470Z,98339.13
2018-09-27T08:18:54.609Z,98339.52
2018-09-27T08:21:21.840Z,98341.92
2018-09-27T08:23:48.953Z,98341.59
2018-09-27T08:26:16.117Z,98340.64
2018-09-27T08:28:43.317Z,98342.70
2018-09-27T08:31:10.554Z,98352.67
2018-09-27T08:33:37.715Z,98338.28
2018-09-27T08:36:05.474Z,98338.47
2018-09-27T08:38:32.660Z,98339.89
2018-09-27T08:41:00.073Z,98340.56
2018-09-27T08:43:27.212Z,98341.34
2018-09-27T08:45:54.386Z,98331.56
2018-09-27T08:48:21.553Z,98333.48
2018-09-27T08:50:48.718Z,98334.98
2018-09-27T08:53:15.916Z,98327.61
2018-09-27T08:55:43.077Z,98318.52
2018-09-27T08:58:10.233Z,98313.12
2018-09-27T09:00:37.416Z,98311.33
2018-09-27T09:03:04.569Z,98308.94
2018-09-27T09:05:31.743Z,98312.17
2018-09-27T09:07:58.918Z,98306.80
2018-09-27T09:10:26.107Z,98311.20
2018-09-27T09:12:53.301Z,98299.32
2018-09-27T09:15:20.664Z,98300.16
2018-09-27T09:17:47.843Z,98300.24
2018-09-27T09:20:15.044Z,98298.09
2018-09-27T09:22:42.337Z,98297.86
2018-09-27T09:25:09.460Z,98298.06
2018-09-27T09:27:36.738Z,98290.75
2018-09-27T09:30:04.253Z,98295.60
2018-09-27T09:32:31.433Z,98291.10
2018-09-27T09:34:58.601Z,98219.25
2018-09-27T09:37:25.760Z,98289.59
2018-09-27T09:39:52.909Z,98292.02
2018-09-27T09:42:20.113Z,98290.08
2018-09-27T09:44:47.428Z,98282.48
2018-09-27T09:47:14.658Z,98276.90
2018-09-27T09:49:41.788Z,98279.27
2018-09-27T09:52:09.000Z,98272.46
2018-09-27T09:54:36.202Z,98269.13
2018-09-27T09:57:03.376Z,98270.26
2018-09-27T09:59:30.559Z,98268.56
2018-09-27T10:01:57.873Z,98265.48
2018-09-27T10:04:25.071Z,98265.48
2018-09-27T10:06:52.292Z,98264.04
2018-09-27T10:09:19.471Z,98262.28
2018-09-27T10:11:46.649Z,98252.91
2018-09-27T10:14:13.813Z,98250.56
2018-09-27T10:16:41.030Z,98251.03
2018-09-27T10:19:08.298Z,98240.06
2018-09-27T10:21:35.522Z,98238.16
2018-09-27T10:24:02.672Z,98234.97
2018-09-27T10:26:29.898Z,98230.72
2018-09-27T10:28:57.092Z,98226.95
2018-09-27T10:31:24.304Z,98225.39
2018-09-27T10:33:51.551Z,98221.53
2018-09-27T10:36:18.821Z,98223.15
2018-09-27T10:38:46.039Z,98221.17
2018-09-27T10:41:13.233Z,98229.92
2018-09-27T10:43:40.447Z,98216.92
2018-09-27T10:46:07.623Z,98220.77
2018-09-27T10:48:34.844Z,98214.97
2018-09-27T10:51:02.089Z,98214.86
2018-09-27T10:53:29.294Z,98213.52
2018-09-27T10:55:56.460Z,98205.66
2018-09-27T10:58:23.685Z,98200.81
2018-09-27T11:00:50.923Z,98203.00
2018-09-27T11:03:18.148Z,98201.60
2018-09-27T11:05:45.423Z,98192.30
2018-09-27T11:08:12.609Z,98185.48
2018-09-27T11:10:39.829Z,98183.86
2018-09-27T11:13:07.040Z,98181.02
2018-09-27T11:15:34.244Z,98177.40
2018-09-27T11:18:01.450Z,98178.07
2018-09-27T11:20:28.634Z,98172.06
2018-09-27T11:22:55.917Z,98162.34
2018-09-27T11:25:23.126Z,98158.44
2018-09-27T11:27:50.372Z,98154.11
2018-09-27T11:30:23.143Z,98141.60
2018-09-27T11:32:50.414Z,98133.30
2018-09-27T11:35:17.542Z,98129.58
2018-09-27T11:37:44.720Z,98126.42
2018-09-27T11:40:11.932Z,98129.38
2018-09-27T11:42:39.481Z,98120.55
2018-09-27T11:45:07.017Z,98117.40
2018-09-27T11:47:34.241Z,98119.72
2018-09-27T11:50:01.500Z,98119.92
2018-09-27T11:52:28.764Z,98113.94
2018-09-27T11:54:55.987Z,98112.16
2018-09-27T11:57:23.194Z,98103.51
2018-09-27T11:59:50.439Z,98100.81
2018-09-27T12:02:17.695Z,98090.45
2018-09-27T12:04:44.877Z,98087.03
2018-09-27T12:07:12.405Z,98090.58
2018-09-27T12:09:39.564Z,98086.35
2018-09-27T12:12:06.853Z,98078.31
2018-09-27T12:14:34.052Z,98071.38
2018-09-27T12:17:01.264Z,98067.19
2018-09-27T12:19:28.660Z,98069.08
2018-09-27T12:21:55.784Z,98060.55
2018-09-27T12:24:22.962Z,98052.14
2018-09-27T12:26:50.203Z,98048.31
2018-09-27T12:29:17.448Z,98047.34
2018-09-27T12:31:44.739Z,98046.11
2018-09-27T12:34:12.098Z,98037.95
2018-09-27T12:36:39.316Z,98037.02
2018-09-27T12:39:07.926Z,98036.52
2018-09-27T12:41:35.219Z,98035.60
2018-09-27T12:44:02.371Z,98030.53
2018-09-27T12:46:29.654Z,98028.55
2018-09-27T12:48:56.806Z,98017.02
2018-09-27T12:51:24.038Z,98021.84
2018-09-27T12:53:51.329Z,98017.84
2018-09-27T12:56:18.553Z,98011.14
2018-09-27T12:58:45.795Z,98004.50
2018-09-27T13:01:13.009Z,98003.17
2018-09-27T13:03:40.255Z,97995.78
2018-09-27T13:06:07.494Z,97996.80
2018-09-27T13:08:34.741Z,97991.30
2018-09-27T13:11:01.993Z,97986.27
2018-09-27T13:13:29.395Z,97989.03
2018-09-27T13:15:56.434Z,97982.28
2018-09-27T13:18:23.678Z,97972.98
2018-09-27T13:20:50.937Z,97965.39
2018-09-27T13:23:18.130Z,97960.21
2018-09-27T13:25:45.380Z,97959.81
2018-09-27T13:28:12.520Z,97951.69
2018-09-27T13:30:39.706Z,97947.17
2018-09-27T13:33:07.000Z,97940.25
2018-09-27T13:35:34.149Z,97929.20
2018-09-27T13:38:01.389Z,97921.42
2018-09-27T13:40:28.605Z,97922.59
2018-09-27T13:42:55.860Z,97913.88
2018-09-27T13:45:23.081Z,97901.25
2018-09-27T13:47:50.302Z,97901.77
2018-09-27T13:50:17.590Z,97895.16
2018-09-27T13:52:44.820Z,97888.88
2018-09-27T13:55:12.161Z,97889.44
2018-09-27T13:57:39.270Z,97884.99
2018-09-27T14:00:07.041Z,97885.56
2018-09-27T14:02:34.289Z,97882.72
2018-09-27T14:05:01.528Z,97874.72
2018-09-27T14:07:28.780Z,97864.70
2018-09-27T14:09:55.988Z,97865.27
2018-09-27T14:12:23.156Z,97861.89
2018-09-27T14:14:50.404Z,97862.63
2018-09-27T14:17:17.615Z,97864.23
2018-09-27T14:19:44.801Z,97860.98
2018-09-27T14:22:12.012Z,97851.89
2018-09-27T14:24:39.232Z,97853.09
2018-09-27T14:27:06.585Z,97840.48
2018-09-27T14:29:33.813Z,97837.16
2018-09-27T14:32:01.001Z,97832.50
2018-09-27T14:34:28.243Z,97828.84
2018-09-27T14:36:55.544Z,97835.89
2018-09-27T14:39:22.846Z,97834.42
2018-09-27T14:41:50.111Z,97835.03
2018-09-27T14:44:17.369Z,97830.17
2018-09-27T14:46:44.707Z,97829.10
2018-09-27T14:49:12.161Z,97826.17
2018-09-27T14:51:40.083Z,97826.33
2018-09-27T14:54:08.170Z,97818.26
2018-09-27T14:56:36.647Z,97813.55
2018-09-27T14:59:03.902Z,97815.34
2018-09-27T15:01:31.195Z,97812.75
2018-09-27T15:03:58.493Z,97816.80
2018-09-27T15:06:25.794Z,97814.92
2018-09-27T15:08:53.020Z,97806.56
2018-09-27T15:11:20.245Z,97807.19
2018-09-27T15:13:47.456Z,97800.03
2018-09-27T15:16:14.738Z,97798.45
2018-09-27T15:18:41.898Z,97794.99
2018-09-27T15:21:09.105Z,97787.84
2018-09-27T15:23:36.448Z,97783.64
2018-09-27T15:26:03.631Z,97781.02
2018-09-27T15:28:30.802Z,97780.25
2018-09-27T15:30:58.043Z,97775.80
2018-09-27T15:33:25.320Z,97773.19
2018-09-27T15:35:52.547Z,97772.19
2018-09-27T15:38:19.740Z,97765.44
2018-09-27T15:40:47.035Z,97760.61
2018-09-27T15:43:14.204Z,97754.69
2018-09-27T15:45:41.381Z,97758.50
2018-09-27T15:48:08.672Z,97750.38
2018-09-27T15:50:35.924Z,97750.25
2018-09-27T15:53:03.192Z,97751.16
2018-09-27T15:55:30.414Z,97747.80
2018-09-27T15:57:57.585Z,97742.27
2018-09-27T16:00:24.793Z,97730.74
2018-09-27T16:02:52.157Z,97739.98
2018-09-27T16:05:19.350Z,97744.48
2018-09-27T16:07:46.510Z,97740.55
2018-09-27T16:10:13.668Z,97730.31
2018-09-27T16:12:40.881Z,97724.06
2018-09-27T16:15:08.097Z,97722.98
2018-09-27T16:17:35.354Z,97721.30
2018-09-27T16:20:02.704Z,97718.50
2018-09-27T16:22:29.909Z,97719.45
2018-09-27T16:24:57.117Z,97721.72
2018-09-27T16:27:24.333Z,97715.44
2018-09-27T16:29:51.569Z,97709.44
2018-09-27T16:32:18.737Z,97704.56
2018-09-27T16:34:45.945Z,97701.02
2018-09-27T16:37:13.270Z,97695.42
2018-09-27T16:39:40.593Z,97702.73
2018-09-27T16:42:07.788Z,97700.48
2018-09-27T16:44:34.940Z,97693.17
2018-09-27T16:47:02.238Z,97691.01
2018-09-27T16:49:29.457Z,97689.55
2018-09-27T16:51:56.625Z,97686.77
2018-09-27T16:54:23.860Z,97686.36
2018-09-27T16:56:51.024Z,97686.21
2018-09-27T16:59:18.196Z,97685.09
2018-09-27T17:01:45.441Z,97680.74
2018-09-27T17:04:12.527Z,97682.90
2018-09-27T17:06:39.692Z,97683.19
2018-09-27T17:09:07.362Z,97679.64
2018-09-27T17:11:34.553Z,97684.33
2018-09-27T17:14:01.705Z,97678.66
2018-09-27T17:16:28.891Z,97674.57
2018-09-27T17:18:56.111Z,97677.35
2018-09-27T17:21:23.325Z,97678.13
2018-09-27T17:23:50.545Z,97676.68
2018-09-27T17:26:17.725Z,97673.70
2018-09-27T17:28:45.020Z,97669.23
2018-09-27T17:31:12.170Z,97670.50
2018-09-27T17:33:39.380Z,97669.80
2018-09-27T17:36:06.755Z,97666.69
2018-09-27T17:38:33.947Z,97666.88
2018-09-27T17:41:01.133Z,97662.28
2018-09-27T17:43:28.283Z,97659.63
2018-09-27T17:45:55.571Z,97659.43
2018-09-27T17:48:31.209Z,97661.22
2018-09-27T17:50:58.579Z,97661.84
2018-09-27T17:53:29.168Z,97663.71
2018-09-27T17:56:03.820Z,97663.61
2018-09-27T17:58:34.199Z,97672.13
2018-09-27T18:01:04.067Z,97674.64
2018-09-27T18:03:31.208Z,97667.27
2018-09-27T18:05:58.396Z,97667.67
2018-09-27T18:08:25.541Z,97665.14
2018-09-27T18:10:52.739Z,97658.35
2018-09-27T18:13:19.909Z,97664.23
2018-09-27T18:15:47.108Z,97660.66
2018-09-27T18:18:14.347Z,97660.13
2018-09-27T18:20:41.558Z,97659.33
2018-09-27T18:23:08.723Z,97659.82
2018-09-27T18:25:35.982Z,97664.25
2018-09-27T18:28:03.281Z,97666.24
2018-09-27T18:30:30.623Z,97659.77
2018-09-27T18:32:57.917Z,97663.33
2018-09-27T18:35:25.197Z,97659.30
2018-09-27T18:37:52.542Z,97653.87
2018-09-27T18:40:19.658Z,97651.27
2018-09-27T18:42:46.891Z,97648.00
2018-09-27T18:45:14.134Z,97643.85
2018-09-27T18:47:41.374Z,97644.23
2018-09-27T18:50:08.890Z,97642.47
2018-09-27T18:52:36.100Z,97642.19
2018-09-27T18:55:03.712Z,97641.52
2018-09-27T18:57:31.043Z,97634.06
2018-09-27T18:59:58.204Z,97629.30
2018-09-27T19:02:25.451Z,97618.36
2018-09-27T19:04:52.745Z,97618.01
2018-09-27T19:07:19.949Z,97615.48
2018-09-27T19:09:47.185Z,97620.55
2018-09-27T19:12:14.400Z,97616.00
2018-09-27T19:14:41.636Z,97616.59
2018-09-27T19:17:08.887Z,97614.64
2018-09-27T19:19:36.084Z,97609.02
2018-09-27T19:22:03.311Z,97598.61
2018-09-27T19:24:30.514Z,97602.66
2018-09-27T19:26:57.691Z,97596.17
2018-09-27T19:29:24.920Z,97593.60
2018-09-27T19:31:52.153Z,97599.10
2018-09-27T19:34:19.428Z,97599.04
2018-09-27T19:36:46.698Z,97597.17
2018-09-27T19:39:13.983Z,97598.63
2018-09-27T19:41:42.133Z,97598.48
2018-09-27T19:44:09.713Z,97597.19
2018-09-27T19:46:36.931Z,97604.95
2018-09-27T19:49:04.033Z,97600.58
2018-09-27T19:51:31.267Z,97599.75
2018-09-27T19:53:58.517Z,97601.35
2018-09-27T19:56:25.758Z,97596.17
2018-09-27T19:58:52.982Z,97597.45
2018-09-27T20:01:20.245Z,97599.75
2018-09-27T20:03:47.462Z,97599.58
2018-09-27T20:06:14.751Z,97606.50
2018-09-27T20:08:41.960Z,97608.81
2018-09-27T20:11:09.150Z,97610.83
2018-09-27T20:13:36.386Z,97603.66
2018-09-27T20:29:03.249Z,97604.01
2018-09-27T20:31:30.432Z,97601.83
2018-09-27T20:33:57.782Z,97602.45
2018-09-27T20:36:25.088Z,97602.89
2018-09-27T20:38:52.255Z,97595.95
2018-09-27T20:41:19.501Z,97602.33
2018-09-27T20:43:46.704Z,97600.39
2018-09-27T20:46:13.907Z,97585.66
2018-09-27T20:48:41.102Z,97590.58
2018-09-27T20:51:08.285Z,97592.44
2018-09-27T20:53:35.430Z,97589.32
2018-09-27T20:56:02.590Z,97584.09
2018-09-27T20:58:29.928Z,97580.83
2018-09-27T21:00:57.260Z,97581.70
2018-09-27T21:03:24.557Z,97578.13
2018-09-27T21:05:51.701Z,97582.94
2018-09-27T21:08:18.902Z,97577.66
2018-09-27T21:10:46.037Z,97574.55
2018-09-27T21:13:13.253Z,97569.55
2018-09-27T21:15:40.416Z,97574.36
2018-09-27T21:18:07.555Z,97579.00
2018-09-27T21:20:34.688Z,97568.59
2018-09-27T21:23:01.794Z,97576.84
2018-09-27T21:25:28.933Z,97570.33
2018-09-27T21:27:56.162Z,97572.46
2018-09-27T21:30:23.328Z,97566.44
2018-09-27T21:32:50.472Z,97571.95
2018-09-27T21:35:17.619Z,97561.19
2018-09-27T21:37:44.752Z,97562.41
2018-09-27T21:40:11.913Z,97555.95
2018-09-27T21:42:39.077Z,97554.24
2018-09-27T21:45:06.243Z,97555.05
2018-09-27T21:47:33.470Z,97554.46
2018-09-27T21:50:00.660Z,97549.39
2018-09-27T21:52:27.803Z,97544.87
2018-09-27T21:54:54.956Z,97541.34
2018-09-27T21:57:22.107Z,97542.75
2018-09-27T21:59:49.267Z,97543.89
2018-09-27T22:02:16.453Z,97541.70
2018-09-27T22:04:44.296Z,97538.80
2018-09-27T22:07:11.440Z,97535.28
2018-09-27T22:09:38.531Z,97535.58
2018-09-27T22:12:05.724Z,97538.30
2018-09-27T22:14:32.884Z,97538.64
2018-09-27T22:17:00.037Z,97530.88
2018-09-27T22:19:27.200Z,97543.16
2018-09-27T22:21:54.320Z,97527.24
2018-09-27T22:24:21.448Z,97534.67
2018-09-27T22:26:48.584Z,97526.43
2018-09-27T22:29:15.733Z,97527.62
2018-09-27T22:31:42.894Z,97528.50
2018-09-27T22:34:10.030Z,97529.05
2018-09-27T22:36:37.244Z,97520.98
2018-09-27T22:39:05.653Z,97520.59
2018-09-27T22:41:32.758Z,97517.03
2018-09-27T22:43:59.928Z,97511.19
2018-09-27T22:46:27.064Z,97507.96
2018-09-27T22:48:54.221Z,97508.02
2018-09-27T22:51:21.399Z,97503.42
2018-09-27T22:53:48.511Z,97503.88
2018-09-27T22:56:15.652Z,97499.38
2018-09-27T22:58:42.843Z,97498.89
2018-09-27T23:01:09.993Z,97491.27
2018-09-27T23:03:37.137Z,97493.41
2018-09-27T23:06:04.339Z,97494.58
2018-09-27T23:08:31.536Z,97483.63
2018-09-27T23:10:58.692Z,97497.27
2018-09-27T23:13:25.928Z,97490.31
2018-09-27T23:15:53.073Z,97486.25
2018-09-27T23:18:20.234Z,97478.28
2018-09-27T23:20:47.392Z,97476.00
2018-09-27T23:23:14.577Z,97473.71
2018-09-27T23:25:41.713Z,97467.12
2018-09-27T23:28:08.909Z,97480.52
2018-09-27T23:30:36.050Z,97478.30
2018-09-27T23:33:03.189Z,97476.56
2018-09-27T23:35:30.387Z,97475.62
2018-09-27T23:37:57.492Z,97473.50
2018-09-27T23:40:24.710Z,97475.84
2018-09-27T23:42:51.905Z,97463.91
2018-09-27T23:45:19.022Z,97461.57
2018-09-27T23:47:46.184Z,97464.13
2018-09-27T23:50:13.402Z,97459.61
2018-09-27T23:52:40.776Z,97465.61
2018-09-27T23:55:08.000Z,97463.72
2018-09-27T23:57:35.165Z,97459.19
